Time;durP1;ratioP1;P1;durP2;ratioP2;P2;SDS_P1;SDS_P2;PMS_P1;PMS_P2;Temp;Humidity;BMP_temperature;BMP_pressure;BME280_temperature;BME280_humidity;BME280_pressure;Samples;Min_cycle;Max_cycle;Signal;HPM_P1;HPM_P2
2022/04/15 00:01:39;;;;;;;15.45;8.20;;;;;;;13.36;73.31;102360.31;4889572;29;20131;-49
2022/04/15 00:04:07;;;;;;;14.43;8.13;;;;;;;13.30;73.33;102361.28;4887089;29;20040;-49
2022/04/15 00:06:34;;;;;;;14.23;7.60;;;;;;;13.28;73.71;102363.47;4899626;29;20044;-49
2022/04/15 00:09:03;;;;;;;16.08;8.27;;;;;;;13.28;73.51;102372.50;4899002;29;20052;-49
2022/04/15 00:11:31;;;;;;;14.35;8.07;;;;;;;13.26;73.61;102365.59;4897552;29;20044;-48
2022/04/15 00:14:00;;;;;;;13.43;7.93;;;;;;;13.22;73.36;102373.44;4898834;29;20100;-48
2022/04/15 00:16:27;;;;;;;14.38;8.00;;;;;;;13.18;73.88;102364.91;4896693;29;20045;-50
2022/04/15 00:18:55;;;;;;;16.08;7.95;;;;;;;13.12;73.93;102363.16;4899197;29;20052;-53
2022/04/15 00:21:23;;;;;;;15.20;8.85;;;;;;;13.10;74.71;102373.53;4898283;29;20048;-53
2022/04/15 00:23:55;;;;;;;14.50;8.82;;;;;;;13.09;74.48;102368.31;4898026;29;20080;-46
2022/04/15 00:26:22;;;;;;;15.73;8.88;;;;;;;13.07;74.99;102374.03;4898648;29;20049;-46
2022/04/15 00:28:52;;;;;;;15.02;9.00;;;;;;;13.06;74.66;102364.16;4898704;29;20045;-47
2022/04/15 00:31:20;;;;;;;15.38;8.95;;;;;;;13.06;74.70;102372.38;4897955;29;20046;-50
2022/04/15 00:33:47;;;;;;;14.20;8.88;;;;;;;13.05;75.33;102372.59;4898874;29;20100;-51
2022/04/15 00:36:15;;;;;;;18.20;9.73;;;;;;;13.04;74.86;102374.53;4898762;29;20056;-50
2022/04/15 00:38:43;;;;;;;16.38;9.00;;;;;;;12.97;75.49;102374.66;4898579;29;20052;-49
2022/04/15 00:41:16;;;;;;;18.45;9.90;;;;;;;12.95;75.81;102386.94;4897354;29;20053;-51
2022/04/15 00:43:44;;;;;;;15.60;9.35;;;;;;;12.95;75.61;102387.75;4878854;29;20564;-51
2022/04/15 00:46:12;;;;;;;16.73;8.90;;;;;;;12.93;75.64;102384.44;4880118;29;20076;-47
2022/04/15 00:48:40;;;;;;;14.18;9.35;;;;;;;12.93;75.47;102378.13;4883987;29;20040;-46
2022/04/15 00:51:08;;;;;;;16.58;9.27;;;;;;;12.93;75.39;102387.16;4898082;29;20500;-45
2022/04/15 00:53:39;;;;;;;15.82;9.98;;;;;;;12.91;75.64;102386.56;4895949;29;20048;-47
2022/04/15 00:56:08;;;;;;;16.80;10.40;;;;;;;12.87;76.16;102390.06;4897344;29;20400;-49
2022/04/15 00:58:37;;;;;;;17.20;10.48;;;;;;;12.79;76.54;102392.13;4898486;29;20497;-47
2022/04/15 01:01:05;;;;;;;15.18;10.30;;;;;;;12.73;76.44;102389.53;4910124;29;20497;-47
2022/04/15 01:03:33;;;;;;;19.70;10.73;;;;;;;12.72;76.70;102391.44;4897363;29;20045;-47
2022/04/15 01:06:05;;;;;;;19.13;11.52;;;;;;;12.70;76.43;102393.59;4927333;29;20579;-49
2022/04/15 01:08:33;;;;;;;17.20;11.15;;;;;;;12.65;76.71;102392.63;4898403;29;20131;-48
2022/04/15 01:11:02;;;;;;;19.73;11.07;;;;;;;12.58;77.49;102392.81;4897430;29;20032;-47
2022/04/15 01:13:38;;;;;;;17.70;11.82;;;;;;;12.55;77.45;102394.13;4895990;29;20047;-48
2022/04/15 01:16:06;;;;;;;16.45;10.70;;;;;;;12.54;78.13;102391.63;4927379;29;20076;-48
2022/04/15 01:18:34;;;;;;;19.50;11.02;;;;;;;12.56;77.82;102397.69;4897956;29;20127;-48
2022/04/15 01:21:01;;;;;;;17.23;10.93;;;;;;;12.57;77.92;102393.84;4896576;29;20527;-47
2022/04/15 01:23:29;;;;;;;17.25;11.23;;;;;;;12.56;78.51;102394.94;4895926;29;20045;-46
2022/04/15 01:25:57;;;;;;;19.67;11.43;;;;;;;12.58;78.44;102403.75;4895922;29;20052;-46
2022/04/15 01:28:24;;;;;;;18.05;11.48;;;;;;;12.61;77.55;102400.50;4879788;29;20049;-45
2022/04/15 01:30:52;;;;;;;16.88;11.57;;;;;;;12.62;77.39;102407.63;4894728;29;20072;-47
2022/04/15 01:33:20;;;;;;;17.63;11.57;;;;;;;12.59;77.64;102405.38;4879732;29;20052;-45
2022/04/15 01:35:50;;;;;;;18.55;11.07;;;;;;;12.54;77.79;102411.59;4878523;29;20460;-45
2022/04/15 01:38:18;;;;;;;18.40;11.40;;;;;;;12.48;78.19;102411.72;4880153;29;20489;-44
2022/04/15 01:40:47;;;;;;;18.52;11.88;;;;;;;12.44;78.47;102414.13;4897315;29;20080;-47
2022/04/15 01:43:14;;;;;;;20.02;12.13;;;;;;;12.42;79.26;102416.25;4896781;29;20052;-47
2022/04/15 01:45:42;;;;;;;19.13;11.73;;;;;;;12.39;78.39;102413.16;4895296;29;20045;-50
2022/04/15 01:48:10;;;;;;;19.63;11.95;;;;;;;12.35;78.96;102416.38;4898290;29;20055;-47
2022/04/15 01:50:37;;;;;;;21.35;12.45;;;;;;;12.37;78.99;102418.88;4897455;29;20049;-49
2022/04/15 01:53:05;;;;;;;23.42;13.38;;;;;;;12.35;79.41;102416.38;4898065;29;20053;-49
2022/04/15 01:55:33;;;;;;;20.85;12.80;;;;;;;12.33;80.07;102418.50;4900724;29;20045;-50
2022/04/15 01:58:01;;;;;;;21.15;13.13;;;;;;;12.32;79.93;102427.81;4896085;29;20048;-49
2022/04/15 02:00:29;;;;;;;19.65;12.73;;;;;;;12.31;80.62;102419.84;4885909;29;20041;-47
2022/04/15 02:02:56;;;;;;;18.95;12.60;;;;;;;12.27;80.35;102419.50;4901675;29;20045;-48
2022/04/15 02:05:24;;;;;;;20.70;12.60;;;;;;;12.24;80.31;102425.44;4901773;29;20099;-46
2022/04/15 02:07:52;;;;;;;21.38;13.13;;;;;;;12.18;80.11;102431.84;4901073;29;20083;-45
2022/04/15 02:10:19;;;;;;;22.02;13.15;;;;;;;12.17;80.38;102430.22;4911914;29;20476;-46
2022/04/15 02:12:47;;;;;;;21.95;13.65;;;;;;;12.13;79.94;102432.56;4891486;29;20045;-43
2022/04/15 02:15:15;;;;;;;19.25;12.35;;;;;;;12.08;79.98;102432.47;4901616;29;20070;-45
2022/04/15 02:17:42;;;;;;;17.52;12.30;;;;;;;12.07;80.70;102435.41;4901362;29;20126;-44
2022/04/15 02:20:13;;;;;;;19.83;13.00;;;;;;;12.05;80.29;102438.41;4900130;29;20052;-45
2022/04/15 02:22:40;;;;;;;16.50;12.23;;;;;;;12.04;80.69;102435.91;4901192;29;20048;-45
2022/04/15 02:25:08;;;;;;;21.45;12.75;;;;;;;12.05;80.67;102438.41;4899855;29;20052;-45
2022/04/15 02:27:36;;;;;;;21.55;12.90;;;;;;;12.04;80.03;102439.47;4900575;29;20457;-45
2022/04/15 02:30:04;;;;;;;20.08;12.40;;;;;;;12.00;79.45;102441.03;4898427;29;20049;-45
2022/04/15 02:32:32;;;;;;;20.60;13.02;;;;;;;11.98;80.46;102442.31;4901159;29;20047;-46
2022/04/15 02:34:59;;;;;;;22.48;12.95;;;;;;;11.97;79.77;102440.66;4900761;29;20045;-47
2022/04/15 02:37:27;;;;;;;22.17;13.82;;;;;;;11.92;80.03;102446.84;4901043;29;20056;-44
2022/04/15 02:39:55;;;;;;;18.17;12.55;;;;;;;11.88;80.46;102451.09;4927858;29;20048;-46
2022/04/15 02:42:23;;;;;;;16.65;12.38;;;;;;;11.87;80.31;102447.53;4901069;29;20431;-45
2022/04/15 02:44:52;;;;;;;19.27;13.40;;;;;;;11.85;79.66;102444.19;4900877;29;20488;-45
2022/04/15 02:47:20;;;;;;;19.23;12.48;;;;;;;11.83;80.46;102442.75;4900799;29;20037;-50
2022/04/15 02:49:48;;;;;;;19.10;12.55;;;;;;;11.84;80.39;102452.63;4887614;29;20068;-52
2022/04/15 02:52:16;;;;;;;19.00;12.63;;;;;;;11.79;79.69;102452.50;4886349;29;20041;-50
2022/04/15 02:54:44;;;;;;;18.95;12.13;;;;;;;11.71;79.48;102459.13;4911917;29;20137;-50
2022/04/15 02:57:11;;;;;;;17.23;12.07;;;;;;;11.63;80.35;102452.13;4889582;29;20052;-51
2022/04/15 02:59:39;;;;;;;17.00;12.35;;;;;;;11.59;80.78;102450.09;4898656;29;20415;-53
2022/04/15 03:02:06;;;;;;;19.63;12.95;;;;;;;11.54;81.05;102453.50;4900744;29;20059;-51
2022/04/15 03:04:34;;;;;;;16.17;11.52;;;;;;;11.51;81.65;102456.72;4900899;29;20198;-54
2022/04/15 03:07:02;;;;;;;16.90;11.40;;;;;;;11.51;81.77;102456.72;4900429;29;20053;-53
2022/04/15 03:09:29;;;;;;;16.02;11.82;;;;;;;11.52;80.94;102452.94;4899090;29;20040;-50
2022/04/15 03:11:57;;;;;;;17.00;11.93;;;;;;;11.52;80.89;102455.69;4899794;29;20049;-49
2022/04/15 03:14:25;;;;;;;17.65;12.07;;;;;;;11.46;80.44;102457.41;4900666;29;20468;-50
2022/04/15 03:16:52;;;;;;;19.10;12.95;;;;;;;11.33;80.89;102452.19;4901497;29;20419;-52
2022/04/15 03:19:20;;;;;;;18.48;12.65;;;;;;;11.19;81.04;102456.16;4899746;29;20064;-52
2022/04/15 03:21:48;;;;;;;16.92;12.02;;;;;;;11.09;82.71;102463.00;4900911;29;20044;-53
2022/04/15 03:24:15;;;;;;;17.90;13.38;;;;;;;11.03;82.52;102466.66;4900422;29;20052;-48
2022/04/15 03:26:43;;;;;;;17.70;13.13;;;;;;;10.87;83.45;102459.94;4900187;29;20123;-50
2022/04/15 03:29:11;;;;;;;17.08;13.65;;;;;;;10.78;84.07;102471.41;4898418;29;20052;-50
2022/04/15 03:31:38;;;;;;;16.52;11.95;;;;;;;10.45;85.78;102472.63;4896706;29;20522;-50
2022/04/15 03:34:06;;;;;;;17.75;11.68;;;;;;;10.11;88.12;102463.09;4900157;29;20093;-49
2022/04/15 03:36:34;;;;;;;16.35;12.20;;;;;;;10.08;89.51;102467.09;4898696;29;20436;-48
2022/04/15 03:39:02;;;;;;;14.88;11.38;;;;;;;10.17;88.88;102463.03;4899080;29;20411;-49
2022/04/15 03:41:30;;;;;;;15.43;11.10;;;;;;;10.13;88.99;102475.44;4900121;29;20556;-51
2022/04/15 03:43:57;;;;;;;14.73;10.63;;;;;;;10.23;88.28;102474.91;4900234;29;20053;-51
2022/04/15 03:46:25;;;;;;;14.02;10.65;;;;;;;10.26;88.86;102473.63;4899769;29;20515;-52
2022/04/15 03:48:52;;;;;;;14.38;10.95;;;;;;;10.34;88.45;102481.53;4897686;29;20040;-48
2022/04/15 03:51:20;;;;;;;12.45;10.10;;;;;;;10.33;87.21;102485.31;4899950;29;20096;-50
2022/04/15 03:53:48;;;;;;;11.68;8.88;;;;;;;10.15;88.26;102489.66;4899784;29;20053;-51
2022/04/15 03:56:15;;;;;;;12.27;9.10;;;;;;;10.02;89.68;102496.03;4899558;29;20059;-49
2022/04/15 03:58:43;;;;;;;11.30;8.57;;;;;;;9.94;90.15;102492.78;4898460;29;20052;-50
2022/04/15 04:01:10;;;;;;;11.15;8.88;;;;;;;9.96;91.36;102496.13;4899025;29;20122;-49
2022/04/15 04:03:38;;;;;;;14.07;9.38;;;;;;;10.01;90.72;102499.84;4899277;29;20049;-49
2022/04/15 04:06:05;;;;;;;11.68;9.50;;;;;;;9.91;90.75;102495.94;4899116;29;20040;-51
2022/04/15 04:08:33;;;;;;;12.80;10.20;;;;;;;9.96;91.98;102502.41;4898197;29;20049;-50
2022/04/15 04:11:01;;;;;;;13.40;9.38;;;;;;;10.09;90.87;102504.16;4899355;29;20052;-52
2022/04/15 04:13:28;;;;;;;11.70;8.93;;;;;;;9.97;91.20;102501.31;4899277;29;20555;-48
2022/04/15 04:15:57;;;;;;;11.38;8.90;;;;;;;9.97;90.95;102497.78;4897345;29;20037;-49
2022/04/15 04:18:24;;;;;;;12.20;9.23;;;;;;;10.02;91.15;102506.09;4896661;29;20049;-48
2022/04/15 04:20:52;;;;;;;10.65;8.77;;;;;;;9.77;91.46;102509.66;4899318;29;20055;-46
2022/04/15 04:23:20;;;;;;;19.17;10.50;;;;;;;9.47;93.58;102514.88;4897718;29;20052;-46
2022/04/15 04:25:47;;;;;;;11.30;9.40;;;;;;;9.26;95.58;102513.34;4898727;29;20054;-46
2022/04/15 04:28:15;;;;;;;11.60;9.02;;;;;;;9.34;95.69;102518.53;4895117;29;20072;-48
2022/04/15 04:30:42;;;;;;;11.32;8.95;;;;;;;9.53;94.13;102521.34;4898762;29;20040;-47
2022/04/15 04:33:10;;;;;;;9.68;7.65;;;;;;;9.45;93.71;102521.59;4897187;29;20104;-48
2022/04/15 04:35:38;;;;;;;11.20;8.20;;;;;;;9.34;93.38;102521.25;4897346;29;20055;-47
2022/04/15 04:38:06;;;;;;;8.70;6.72;;;;;;;9.28;93.67;102529.44;4897973;29;20052;-47
2022/04/15 04:40:34;;;;;;;9.05;6.53;;;;;;;8.96;94.69;102534.81;4896899;29;20059;-49
2022/04/15 04:43:03;;;;;;;11.05;7.30;;;;;;;9.00;95.78;102530.63;4898030;29;20059;-50
2022/04/15 04:45:32;;;;;;;10.25;7.28;;;;;;;9.05;95.18;102538.13;4898406;29;20096;-49
2022/04/15 04:48:01;;;;;;;9.65;6.72;;;;;;;8.92;95.48;102539.84;4894148;29;20489;-49
2022/04/15 04:50:29;;;;;;;10.27;7.78;;;;;;;9.02;96.07;102543.97;4898715;29;20045;-50
2022/04/15 04:52:57;;;;;;;11.45;7.53;;;;;;;9.05;95.86;102543.56;4898366;29;20514;-50
2022/04/15 04:55:25;;;;;;;10.80;7.57;;;;;;;9.10;95.67;102536.44;4881556;29;20063;-49
2022/04/15 04:57:52;;;;;;;11.82;8.40;;;;;;;9.26;94.87;102545.13;4897300;29;20060;-49
2022/04/15 05:00:20;;;;;;;10.57;7.60;;;;;;;9.20;94.72;102543.28;4897298;29;20048;-49
2022/04/15 05:02:48;;;;;;;11.98;8.90;;;;;;;9.30;96.25;102547.22;4898150;29;20051;-49
2022/04/15 05:05:15;;;;;;;12.23;9.48;;;;;;;9.45;95.92;102557.78;4897705;29;20055;-49
2022/04/15 05:07:43;;;;;;;13.15;9.20;;;;;;;9.59;95.02;102559.38;4894916;29;20075;-51
2022/04/15 05:10:11;;;;;;;15.13;10.23;;;;;;;9.65;94.12;102557.69;4898161;29;20048;-47
2022/04/15 05:12:38;;;;;;;13.38;10.18;;;;;;;9.54;93.47;102556.50;4898456;29;20044;-48
2022/04/15 05:15:06;;;;;;;14.00;10.15;;;;;;;9.53;94.33;102556.72;4897154;29;20562;-47
2022/04/15 05:17:34;;;;;;;13.50;9.65;;;;;;;9.56;94.34;102562.56;4898386;29;20060;-50
2022/04/15 05:20:02;;;;;;;13.43;9.98;;;;;;;9.53;94.16;102562.16;4897898;29;20068;-49
2022/04/15 05:22:29;;;;;;;13.50;9.95;;;;;;;9.38;95.48;102560.56;4898519;29;20080;-51
2022/04/15 05:24:57;;;;;;;15.52;10.38;;;;;;;9.20;96.52;102567.78;4896623;29;20037;-47
2022/04/15 05:27:25;;;;;;;15.40;11.00;;;;;;;9.24;96.89;102583.44;4927219;29;20116;-50
2022/04/15 05:29:52;;;;;;;15.18;10.85;;;;;;;9.26;97.77;102575.91;4896956;29;20495;-46
2022/04/15 05:32:22;;;;;;;13.30;9.63;;;;;;;9.33;97.32;102589.47;4896589;29;20420;-50
2022/04/15 05:34:50;;;;;;;14.55;10.77;;;;;;;9.34;96.83;102586.53;4896734;29;20139;-48
2022/04/15 05:37:17;;;;;;;13.68;9.88;;;;;;;9.36;97.77;102592.59;4895675;29;20353;-46
2022/04/15 05:39:45;;;;;;;13.30;10.10;;;;;;;9.45;96.81;102585.00;4896289;29;20053;-47
2022/04/15 05:42:13;;;;;;;16.75;10.38;;;;;;;9.43;96.85;102591.72;4897775;29;20049;-46
2022/04/15 05:44:41;;;;;;;14.20;10.27;;;;;;;9.34;97.51;102600.13;4897742;29;20044;-51
2022/04/15 05:47:09;;;;;;;13.30;9.95;;;;;;;9.43;98.22;102605.31;4895544;29;20045;-49
2022/04/15 05:49:37;;;;;;;14.55;9.98;;;;;;;9.42;97.68;102603.66;4898441;29;20060;-46
2022/04/15 05:52:05;;;;;;;14.77;9.07;;;;;;;9.44;97.99;102609.72;4898061;29;20053;-46
2022/04/15 05:54:33;;;;;;;14.73;9.55;;;;;;;9.33;98.45;102616.66;4897476;29;20063;-45
2022/04/15 05:57:00;;;;;;;13.68;8.88;;;;;;;9.38;99.36;102609.53;4896633;29;20051;-45
2022/04/15 05:59:28;;;;;;;15.27;9.75;;;;;;;9.36;98.53;102617.06;4896950;29;20043;-48
2022/04/15 06:01:55;;;;;;;15.48;9.30;;;;;;;9.36;99.66;102622.53;4896627;29;20056;-47
2022/04/15 06:04:23;;;;;;;13.48;9.65;;;;;;;9.54;99.24;102629.13;4897742;29;20045;-45
2022/04/15 06:06:51;;;;;;;14.43;9.80;;;;;;;9.56;98.24;102624.31;4896356;29;20085;-45
2022/04/15 06:09:18;;;;;;;13.13;8.85;;;;;;;9.61;98.43;102629.94;4897906;29;20119;-46
2022/04/15 06:11:46;;;;;;;13.98;9.20;;;;;;;9.54;97.59;102629.13;4897582;29;20052;-46
2022/04/15 06:14:14;;;;;;;14.57;9.02;;;;;;;9.37;98.85;102635.06;4896897;29;20057;-48
2022/04/15 06:16:43;;;;;;;14.18;9.05;;;;;;;9.38;99.54;102642.19;4896162;29;20057;-50
2022/04/15 06:19:13;;;;;;;12.38;7.72;;;;;;;9.39;98.38;102638.41;4897274;29;20051;-46
2022/04/15 06:21:51;;;;;;;15.05;9.13;;;;;;;9.34;98.69;102651.81;4927885;29;20420;-47
2022/04/15 06:24:19;;;;;;;13.57;8.27;;;;;;;9.30;99.82;102647.03;4899119;29;20068;-47
2022/04/15 06:26:47;;;;;;;15.65;9.23;;;;;;;9.35;99.21;102648.03;4899120;29;20063;-45
2022/04/15 06:29:16;;;;;;;14.48;9.43;;;;;;;9.34;99.52;102651.81;4896583;29;20045;-49
2022/04/15 06:31:44;;;;;;;18.83;9.65;;;;;;;9.33;99.55;102650.16;4897692;29;20053;-46
2022/04/15 06:34:12;;;;;;;15.80;8.90;;;;;;;9.24;99.76;102656.88;4898852;29;20052;-48
2022/04/15 06:36:39;;;;;;;16.50;9.55;;;;;;;9.33;99.88;102655.59;4900155;29;20044;-45
2022/04/15 06:39:07;;;;;;;13.45;8.30;;;;;;;9.26;99.23;102654.78;4900935;29;20044;-46
2022/04/15 06:41:34;;;;;;;16.17;7.72;;;;;;;9.16;100.00;102657.09;4901840;29;20121;-45
2022/04/15 06:44:02;;;;;;;14.00;8.35;;;;;;;9.23;100.00;102663.34;4901648;29;20139;-47
2022/04/15 06:46:30;;;;;;;14.30;7.70;;;;;;;9.35;100.00;102669.78;4901065;29;20056;-45
2022/04/15 06:48:57;;;;;;;13.45;7.40;;;;;;;9.43;97.65;102665.16;4900850;29;20044;-45
2022/04/15 06:51:25;;;;;;;11.25;6.75;;;;;;;9.59;97.24;102659.25;4899235;29;20408;-46
2022/04/15 06:53:53;;;;;;;9.20;5.72;;;;;;;9.65;96.43;102669.28;4882937;29;20104;-48
2022/04/15 06:56:20;;;;;;;10.43;5.85;;;;;;;9.66;94.90;102664.66;4885112;29;20044;-46
2022/04/15 06:58:48;;;;;;;11.55;6.32;;;;;;;9.72;95.76;102674.72;4900735;29;20055;-46
2022/04/15 07:01:16;;;;;;;10.68;5.53;;;;;;;9.80;93.48;102672.56;4899749;29;20076;-46
2022/04/15 07:03:44;;;;;;;10.88;5.90;;;;;;;9.74;92.58;102667.13;4897259;29;20072;-47
2022/04/15 07:06:11;;;;;;;9.45;4.55;;;;;;;9.67;89.41;102678.06;4900321;29;20051;-48
2022/04/15 07:08:39;;;;;;;8.40;4.25;;;;;;;9.64;88.25;102670.31;4898292;29;20100;-46
2022/04/15 07:11:07;;;;;;;10.10;4.20;;;;;;;9.67;87.28;102674.50;4900396;29;20044;-45
2022/04/15 07:13:38;;;;;;;9.60;4.32;;;;;;;9.69;87.29;102686.00;4899123;29;20124;-51
2022/04/15 07:16:06;;;;;;;10.43;4.50;;;;;;;9.67;87.05;102682.66;4900219;29;20056;-47
2022/04/15 07:18:34;;;;;;;12.07;4.88;;;;;;;9.74;87.51;102684.31;4898735;29;20043;-46
2022/04/15 07:21:01;;;;;;;7.45;4.10;;;;;;;9.76;86.62;102687.63;4900379;29;20056;-46
2022/04/15 07:23:29;;;;;;;7.63;4.20;;;;;;;9.78;86.50;102685.53;4900272;29;20088;-47
2022/04/15 07:25:57;;;;;;;7.32;4.40;;;;;;;9.71;86.08;102690.19;4900060;29;20168;-45
2022/04/15 07:28:24;;;;;;;9.73;4.90;;;;;;;9.67;86.58;102693.53;4882189;29;20134;-47
2022/04/15 07:30:52;;;;;;;12.07;5.30;;;;;;;9.67;86.42;102694.41;4899436;29;20056;-48
2022/04/15 07:33:20;;;;;;;7.90;4.43;;;;;;;9.64;86.39;102692.09;4896767;29;20048;-49
2022/04/15 07:35:47;;;;;;;10.02;4.75;;;;;;;9.62;86.37;102696.94;4899745;29;20389;-48
2022/04/15 07:38:15;;;;;;;8.75;4.60;;;;;;;9.65;86.70;102693.78;4899412;29;20377;-48
2022/04/15 07:40:42;;;;;;;10.00;5.20;;;;;;;9.79;86.03;102698.13;4897543;29;20060;-44
2022/04/15 07:43:10;;;;;;;9.48;5.15;;;;;;;9.99;84.91;102697.19;4898956;29;20538;-52
2022/04/15 07:45:38;;;;;;;8.50;4.60;;;;;;;10.12;84.45;102691.63;4899431;29;20044;-46
2022/04/15 07:48:06;;;;;;;7.88;4.18;;;;;;;10.17;82.50;102689.13;4898471;29;20048;-46
2022/04/15 07:50:34;;;;;;;11.82;5.50;;;;;;;10.17;82.95;102685.53;4896487;29;20561;-46
2022/04/15 07:53:02;;;;;;;10.30;5.03;;;;;;;10.21;82.67;102693.06;4897613;29;20411;-47
2022/04/15 07:55:29;;;;;;;8.88;4.10;;;;;;;10.12;80.21;102702.53;4898684;29;20057;-47
2022/04/15 07:57:57;;;;;;;10.88;5.75;;;;;;;10.11;80.65;102694.59;4879201;29;20052;-48
2022/04/15 08:00:24;;;;;;;8.43;3.83;;;;;;;10.13;79.37;102703.41;4882297;29;20060;-47
2022/04/15 08:02:52;;;;;;;8.85;3.80;;;;;;;10.16;79.97;102698.31;4898197;29;20120;-47
2022/04/15 08:05:20;;;;;;;7.72;3.85;;;;;;;10.24;79.59;102694.50;4899423;29;20412;-47
2022/04/15 08:07:47;;;;;;;9.48;3.80;;;;;;;10.22;78.27;102702.91;4899021;29;20040;-45
2022/04/15 08:10:15;;;;;;;10.80;4.30;;;;;;;10.30;78.19;102698.28;4899003;29;20131;-48
2022/04/15 08:12:43;;;;;;;9.13;3.83;;;;;;;10.27;77.66;102701.41;4898428;29;20041;-46
2022/04/15 08:15:11;;;;;;;11.60;4.40;;;;;;;10.28;78.50;102697.63;4899165;29;20134;-47
2022/04/15 08:17:38;;;;;;;9.68;3.90;;;;;;;10.32;78.20;102690.69;4899035;29;20051;-46
2022/04/15 08:20:06;;;;;;;9.68;4.30;;;;;;;10.38;77.12;102698.84;4899299;29;20049;-50
2022/04/15 08:22:35;;;;;;;10.50;3.88;;;;;;;10.38;77.92;102700.72;4897767;29;20040;-53
2022/04/15 08:25:04;;;;;;;8.38;4.45;;;;;;;10.47;78.16;102699.41;4899085;29;20067;-54
2022/04/15 08:27:31;;;;;;;12.93;5.05;;;;;;;10.59;80.76;102703.09;4899266;29;20045;-52
2022/04/15 08:29:59;;;;;;;13.30;7.95;;;;;;;10.70;77.91;102703.41;4889737;29;20049;-51
2022/04/15 08:32:33;;;;;;;7.40;4.00;;;;;;;10.69;77.06;102705.31;4893450;29;20499;-50
2022/04/15 08:35:09;;;;;;;7.13;3.85;;;;;;;10.73;76.41;102703.00;4881934;29;20056;-53
2022/04/15 08:37:36;;;;;;;8.05;3.97;;;;;;;10.67;76.76;102704.69;4890579;29;20119;-50
2022/04/15 08:40:04;;;;;;;8.55;4.35;;;;;;;10.69;77.48;102709.94;4880975;29;20057;-50
2022/04/15 08:42:32;;;;;;;7.50;3.85;;;;;;;10.69;77.82;102712.66;4886842;29;20511;-46
2022/04/15 08:45:00;;;;;;;8.63;4.05;;;;;;;10.76;76.60;102708.81;4898781;29;20052;-48
2022/04/15 08:47:29;;;;;;;9.13;4.18;;;;;;;10.77;76.57;102720.56;4897625;29;20059;-51
2022/04/15 08:49:57;;;;;;;10.73;3.92;;;;;;;10.71;76.33;102716.00;4884464;29;20136;-50
2022/04/15 08:52:25;;;;;;;9.25;4.10;;;;;;;10.73;76.26;102719.34;4898733;29;20406;-49
2022/04/15 08:54:52;;;;;;;6.82;4.10;;;;;;;10.80;75.94;102720.97;4897178;29;20049;-49
2022/04/15 08:57:20;;;;;;;9.73;4.30;;;;;;;10.76;75.68;102724.34;4898661;29;20044;-50
2022/04/15 08:59:48;;;;;;;9.50;4.50;;;;;;;10.63;76.29;102726.13;4898278;29;20053;-47
2022/04/15 09:02:30;;;;;;;11.25;5.88;;;;;;;10.55;77.30;102722.84;4885672;29;20104;-49
2022/04/15 09:04:58;;;;;;;8.45;5.00;;;;;;;10.65;77.65;102732.22;4898616;29;20056;-47
2022/04/15 09:07:30;;;;;;;9.23;4.03;;;;;;;10.70;75.63;102734.25;4898449;29;20510;-49
2022/04/15 09:10:05;;;;;;;8.93;4.07;;;;;;;10.79;75.34;102730.19;4896820;29;20043;-54
2022/04/15 09:12:35;;;;;;;7.57;4.00;;;;;;;10.86;75.94;102735.59;4898032;29;20123;-46
2022/04/15 09:15:06;;;;;;;7.18;4.30;;;;;;;10.90;74.76;102742.28;4898513;29;20051;-51
2022/04/15 09:17:49;;;;;;;6.78;3.90;;;;;;;10.94;74.56;102746.22;4898432;29;20058;-50
2022/04/15 09:20:17;;;;;;;9.00;5.55;;;;;;;10.87;73.27;102732.66;4898056;29;20052;-49
2022/04/15 09:22:45;;;;;;;6.47;3.92;;;;;;;10.89;73.74;102740.59;4898068;29;20092;-50
2022/04/15 09:25:13;;;;;;;6.72;4.25;;;;;;;10.85;73.99;102739.38;4897078;29;20416;-54
2022/04/15 09:27:41;;;;;;;7.85;3.83;;;;;;;10.77;74.59;102742.38;4897189;29;20044;-48
2022/04/15 09:30:09;;;;;;;7.90;3.75;;;;;;;10.78;75.02;102744.88;4897864;29;20045;-49
2022/04/15 09:32:40;;;;;;;6.90;3.80;;;;;;;10.81;74.22;102740.88;4898227;29;20135;-50
2022/04/15 09:35:09;;;;;;;6.38;3.70;;;;;;;10.84;73.98;102746.72;4897717;29;20131;-48
2022/04/15 09:37:39;;;;;;;8.23;4.03;;;;;;;10.95;74.29;102749.78;4897936;29;20047;-51
2022/04/15 09:40:15;;;;;;;5.53;3.40;;;;;;;11.04;73.47;102754.75;4897345;29;20472;-49
2022/04/15 09:42:52;;;;;;;7.88;3.72;;;;;;;11.02;72.21;102758.75;4898375;29;20052;-51
2022/04/15 09:45:29;;;;;;;9.32;4.15;;;;;;;11.03;73.07;102758.50;4896578;29;20128;-50
2022/04/15 09:47:57;;;;;;;8.52;3.90;;;;;;;11.19;72.18;102753.56;4898081;29;20408;-50
2022/04/15 09:50:29;;;;;;;5.68;3.40;;;;;;;11.24;72.63;102759.19;4897521;29;20048;-49
2022/04/15 09:53:19;;;;;;;8.20;3.85;;;;;;;11.36;72.51;102754.63;4896927;29;20049;-49
2022/04/15 09:55:51;;;;;;;7.60;3.85;;;;;;;11.33;71.14;102765.16;4898495;29;20051;-55
2022/04/15 09:58:28;;;;;;;7.90;3.83;;;;;;;11.34;71.32;102762.22;4898746;29;20059;-55
2022/04/15 10:00:58;;;;;;;6.88;3.67;;;;;;;11.36;71.62;102762.81;4900309;29;20074;-51
2022/04/15 10:03:27;;;;;;;6.65;3.80;;;;;;;11.30;71.57;102753.66;4892553;29;20064;-52
2022/04/15 10:05:57;;;;;;;7.28;3.70;;;;;;;11.35;71.76;102755.69;4882539;29;20072;-51
2022/04/15 10:08:26;;;;;;;6.88;3.70;;;;;;;11.42;71.12;102755.63;4897294;29;20044;-51
2022/04/15 10:10:55;;;;;;;7.45;3.90;;;;;;;11.43;72.25;102757.31;4897893;29;20051;-54
2022/04/15 10:13:27;;;;;;;6.22;3.95;;;;;;;11.38;72.05;102754.44;4896010;29;20059;-53
2022/04/15 10:15:56;;;;;;;6.88;3.95;;;;;;;11.40;71.33;102758.59;4901591;29;20074;-50
2022/04/15 10:18:25;;;;;;;8.35;3.75;;;;;;;11.33;71.93;102763.28;4901413;29;20131;-52
2022/04/15 10:20:53;;;;;;;6.32;3.47;;;;;;;11.38;71.51;102754.44;4901504;29;20048;-51
2022/04/15 10:23:22;;;;;;;6.25;4.07;;;;;;;11.47;71.63;102753.91;4887835;29;20128;-50
2022/04/15 10:25:51;;;;;;;7.60;3.95;;;;;;;11.47;70.57;102753.03;4892625;29;20443;-49
2022/04/15 10:28:42;;;;;;;8.38;4.05;;;;;;;11.58;71.16;102765.94;4895216;29;20041;-50
2022/04/15 10:31:13;;;;;;;8.85;4.47;;;;;;;11.65;70.10;102755.78;4888863;29;20445;-53
2022/04/15 10:33:42;;;;;;;9.32;4.13;;;;;;;11.64;69.92;102758.75;4900039;29;20052;-52
2022/04/15 10:36:23;;;;;;;6.35;3.67;;;;;;;11.60;70.95;102761.09;4900095;29;20161;-49
2022/04/15 10:39:03;;;;;;;7.13;3.78;;;;;;;11.61;71.39;102753.75;4899410;29;20150;-50
2022/04/15 10:41:53;;;;;;;9.60;3.97;;;;;;;11.52;71.20;102756.78;4883075;29;20417;-51
2022/04/15 10:44:29;;;;;;;7.50;3.50;;;;;;;11.52;71.14;102756.78;4866670;29;20075;-50
2022/04/15 10:47:05;;;;;;;7.13;4.03;;;;;;;11.45;71.38;102747.84;4881321;29;20048;-48
2022/04/15 10:49:34;;;;;;;7.60;3.83;;;;;;;11.54;71.79;102751.06;4897879;29;20047;-47
2022/04/15 10:52:27;;;;;;;8.15;3.67;;;;;;;11.64;71.15;102753.28;4899310;29;20040;-50
2022/04/15 10:54:59;;;;;;;11.00;4.88;;;;;;;11.74;71.28;102756.34;4885701;29;20059;-50
2022/04/15 10:57:40;;;;;;;7.30;3.72;;;;;;;11.70;70.26;102745.00;4900859;29;20052;-50
2022/04/15 11:03:02;;;;;;;7.28;3.80;;;;;;;11.90;71.44;102746.69;4897632;29;20053;-52
2022/04/15 11:05:42;;;;;;;7.35;3.45;;;;;;;11.97;69.92;102746.63;4896363;29;20055;-52
2022/04/15 11:08:17;;;;;;;9.25;3.58;;;;;;;11.86;70.16;102749.03;4896062;29;20139;-53
2022/04/15 11:11:03;;;;;;;7.78;3.63;;;;;;;11.80;69.59;102751.84;4895659;29;20515;-49
2022/04/15 11:13:39;;;;;;;7.90;3.30;;;;;;;11.69;70.56;102750.72;4897553;29;20060;-51
2022/04/15 11:16:07;;;;;;;5.63;3.13;;;;;;;11.63;70.44;102746.16;4895658;29;20135;-51
2022/04/15 11:19:01;;;;;;;7.43;3.33;;;;;;;11.58;70.50;102746.00;4896663;29;20048;-52
2022/04/15 11:21:37;;;;;;;5.60;3.20;;;;;;;11.64;70.59;102747.81;4897375;29;20045;-49
2022/04/15 11:24:10;;;;;;;6.22;3.53;;;;;;;11.73;69.87;102747.28;4896781;29;20554;-50
2022/04/15 11:26:44;;;;;;;7.20;3.53;;;;;;;11.79;71.58;102747.47;4891818;29;20060;-49
2022/04/15 11:29:14;;;;;;;6.80;3.63;;;;;;;11.92;70.12;102745.41;4896918;29;20052;-49
2022/04/15 11:31:46;;;;;;;10.27;4.18;;;;;;;12.06;69.84;102745.25;4899872;29;20048;-47